createdAt,value
2018-04-29T00:01:14.896Z,3.07
2018-04-29T00:03:41.612Z,3.20
2018-04-29T00:06:08.318Z,2.77
2018-04-29T00:08:34.996Z,3.47
2018-04-29T00:11:01.704Z,3.17
2018-04-29T00:13:28.456Z,2.97
2018-04-29T00:15:55.136Z,3.10
2018-04-29T00:18:21.827Z,2.77
2018-04-29T00:20:49.013Z,3.00
2018-04-29T00:23:15.707Z,3.00
2018-04-29T00:25:42.363Z,3.40
2018-04-29T00:28:09.114Z,3.20
2018-04-29T00:30:35.796Z,3.27
2018-04-29T00:33:02.488Z,3.07
2018-04-29T00:35:29.161Z,3.87
2018-04-29T00:37:55.975Z,3.90
2018-04-29T00:40:22.676Z,3.40
2018-04-29T00:42:49.349Z,3.37
2018-04-29T00:45:16.046Z,3.77
2018-04-29T00:47:42.753Z,3.60
2018-04-29T00:50:09.404Z,3.40
2018-04-29T00:52:36.233Z,3.57
2018-04-29T00:55:02.917Z,3.13
2018-04-29T00:57:29.604Z,3.40
2018-04-29T00:59:56.424Z,3.60
2018-04-29T01:02:23.116Z,3.30
2018-04-29T01:04:49.812Z,4.10
2018-04-29T01:07:16.502Z,3.47
2018-04-29T01:09:43.183Z,3.53
2018-04-29T01:12:09.824Z,3.63
2018-04-29T01:14:36.536Z,3.30
2018-04-29T01:17:03.206Z,3.50
2018-04-29T01:19:30.004Z,3.03
2018-04-29T01:21:56.701Z,3.23
2018-04-29T01:24:23.379Z,4.23
2018-04-29T01:26:50.024Z,3.43
2018-04-29T01:29:16.689Z,3.63
2018-04-29T01:31:43.379Z,3.93
2018-04-29T01:34:10.045Z,3.53
2018-04-29T01:36:36.693Z,3.60
2018-04-29T01:39:03.386Z,4.10
2018-04-29T01:41:30.087Z,3.70
2018-04-29T01:43:56.803Z,3.50
2018-04-29T01:46:23.474Z,3.43
2018-04-29T01:48:50.155Z,3.77
2018-04-29T01:51:16.920Z,3.70
2018-04-29T01:53:43.632Z,3.23
2018-04-29T01:56:10.300Z,3.60
2018-04-29T01:58:36.949Z,4.13
2018-04-29T02:01:03.610Z,4.00
2018-04-29T02:03:30.296Z,3.77
2018-04-29T02:05:56.988Z,3.90
2018-04-29T02:08:23.630Z,3.73
2018-04-29T02:10:50.329Z,4.10
2018-04-29T02:13:16.985Z,3.57
2018-04-29T02:15:43.671Z,3.20
2018-04-29T02:18:10.353Z,3.50
2018-04-29T02:20:37.011Z,3.70
2018-04-29T02:23:03.698Z,2.60
2018-04-29T02:25:30.361Z,3.03
2018-04-29T02:27:57.037Z,2.83
2018-04-29T02:30:23.776Z,2.60
2018-04-29T02:32:50.460Z,2.60
2018-04-29T02:35:17.266Z,3.03
2018-04-29T02:37:43.970Z,3.40
2018-04-29T02:40:10.631Z,4.03
2018-04-29T02:42:37.273Z,3.07
2018-04-29T02:45:03.965Z,3.60
2018-04-29T02:47:30.625Z,3.23
2018-04-29T02:49:57.291Z,3.40
2018-04-29T02:52:23.934Z,3.63
2018-04-29T02:54:50.637Z,3.77
2018-04-29T02:57:17.299Z,4.67
2018-04-29T02:59:43.986Z,3.10
2018-04-29T03:02:10.660Z,3.17
2018-04-29T03:04:37.318Z,3.40
2018-04-29T03:07:04.471Z,3.17
2018-04-29T03:09:31.144Z,3.70
2018-04-29T03:11:57.888Z,3.20
2018-04-29T03:14:24.551Z,3.33
2018-04-29T03:16:51.269Z,3.30
2018-04-29T03:19:17.975Z,3.40
2018-04-29T03:21:44.635Z,3.47
2018-04-29T03:24:11.321Z,3.40
2018-04-29T03:26:37.964Z,3.80
2018-04-29T03:29:04.635Z,3.83
2018-04-29T03:31:31.297Z,3.03
2018-04-29T03:33:58.000Z,3.20
2018-04-29T03:36:24.685Z,3.17
2018-04-29T03:38:51.382Z,3.47
2018-04-29T03:41:18.039Z,4.00
2018-04-29T03:43:45.419Z,3.37
2018-04-29T03:46:12.072Z,3.50
2018-04-29T03:48:38.756Z,3.80
2018-04-29T03:51:05.418Z,4.07
2018-04-29T03:53:32.092Z,4.17
2018-04-29T03:55:58.847Z,3.63
2018-04-29T03:58:31.326Z,3.70
2018-04-29T04:01:03.739Z,4.03
2018-04-29T04:03:36.245Z,4.47
2018-04-29T04:06:02.913Z,3.70
2018-04-29T04:08:29.559Z,3.67
2018-04-29T04:10:56.257Z,3.33
2018-04-29T04:13:23.000Z,3.00
2018-04-29T04:15:49.661Z,2.70
2018-04-29T04:18:16.416Z,3.37
2018-04-29T04:20:43.108Z,3.13
2018-04-29T04:23:09.779Z,3.10
2018-04-29T04:25:36.443Z,3.10
2018-04-29T04:28:03.128Z,3.83
2018-04-29T04:30:29.792Z,3.30
2018-04-29T04:32:56.447Z,2.80
2018-04-29T04:35:23.111Z,3.40
2018-04-29T04:37:49.819Z,3.10
2018-04-29T04:40:16.540Z,3.43
2018-04-29T04:42:43.182Z,4.80
2018-04-29T04:45:09.910Z,4.13
2018-04-29T04:47:36.584Z,3.37
2018-04-29T04:50:03.447Z,4.00
2018-04-29T04:52:30.108Z,4.70
2018-04-29T04:54:56.858Z,4.20
2018-04-29T04:57:23.521Z,3.93
2018-04-29T04:59:50.224Z,4.40
2018-04-29T05:02:16.881Z,4.03
2018-04-29T05:04:43.564Z,4.03
2018-04-29T05:07:10.226Z,3.57
2018-04-29T05:09:37.028Z,4.17
2018-04-29T05:12:03.692Z,4.10
2018-04-29T05:14:30.359Z,4.30
2018-04-29T05:16:57.125Z,4.03
2018-04-29T05:19:23.770Z,4.13
2018-04-29T05:21:50.424Z,4.00
2018-04-29T05:24:17.139Z,4.10
2018-04-29T05:26:43.852Z,4.63
2018-04-29T05:29:10.510Z,5.40
2018-04-29T05:31:37.177Z,5.27
2018-04-29T05:34:03.850Z,5.20
2018-04-29T05:36:30.508Z,5.17
2018-04-29T05:38:57.174Z,5.63
2018-04-29T05:41:23.977Z,4.90
2018-04-29T05:43:50.675Z,5.47
2018-04-29T05:46:17.326Z,5.50
2018-04-29T05:48:44.048Z,6.30
2018-04-29T05:51:10.747Z,8.33
2018-04-29T05:53:37.390Z,6.00
2018-04-29T05:56:04.063Z,5.63
2018-04-29T05:58:30.711Z,6.00
2018-04-29T06:00:57.372Z,6.27
2018-04-29T06:03:24.542Z,5.80
2018-04-29T06:05:51.185Z,5.80
2018-04-29T06:08:17.960Z,5.80
2018-04-29T06:10:44.617Z,5.87
2018-04-29T06:13:11.297Z,5.47
2018-04-29T06:15:37.976Z,4.97
2018-04-29T06:18:04.659Z,4.90
2018-04-29T06:20:31.331Z,5.13
2018-04-29T06:22:58.013Z,4.40
2018-04-29T06:25:24.770Z,5.30
2018-04-29T06:27:51.502Z,3.37
2018-04-29T06:30:18.263Z,4.33
2018-04-29T06:32:44.936Z,4.30
2018-04-29T06:35:11.624Z,4.13
2018-04-29T06:37:38.358Z,3.77
2018-04-29T06:40:05.106Z,3.83
2018-04-29T06:42:31.884Z,3.33
2018-04-29T06:44:58.835Z,3.93
2018-04-29T06:47:25.627Z,3.57
2018-04-29T06:49:52.319Z,3.67
2018-04-29T06:52:19.035Z,2.73
2018-04-29T06:54:45.729Z,3.50
2018-04-29T06:57:12.426Z,2.93
2018-04-29T06:59:39.133Z,2.93
2018-04-29T07:02:05.797Z,3.23
2018-04-29T07:04:32.516Z,3.03
2018-04-29T07:06:59.240Z,2.80
2018-04-29T07:09:26.014Z,2.90
2018-04-29T07:11:52.727Z,3.23
2018-04-29T07:14:19.553Z,3.60
2018-04-29T07:16:46.994Z,3.70
2018-04-29T07:19:13.680Z,3.00
2018-04-29T07:21:40.442Z,2.73
2018-04-29T07:24:07.238Z,3.10
2018-04-29T07:26:34.043Z,2.00
2018-04-29T07:29:00.877Z,2.47
2018-04-29T07:31:27.627Z,2.83
2018-04-29T07:33:54.300Z,2.73
2018-04-29T07:36:21.186Z,2.20
2018-04-29T07:38:47.944Z,2.57
2018-04-29T07:41:14.745Z,2.70
2018-04-29T07:43:41.436Z,2.97
2018-04-29T07:46:08.206Z,2.43
2018-04-29T07:48:34.918Z,2.97
2018-04-29T07:51:01.657Z,2.83
2018-04-29T07:53:28.344Z,2.97
2018-04-29T07:55:55.070Z,2.93
2018-04-29T07:58:21.745Z,2.63
2018-04-29T08:00:48.574Z,2.30
2018-04-29T08:03:15.177Z,3.60
2018-04-29T08:05:41.845Z,3.30
2018-04-29T08:08:08.493Z,2.53
2018-04-29T08:10:35.166Z,2.80
2018-04-29T08:13:01.819Z,2.43
2018-04-29T08:15:28.512Z,2.83
2018-04-29T08:17:55.221Z,2.93
2018-04-29T08:20:21.904Z,3.50
2018-04-29T08:22:48.601Z,3.30
2018-04-29T08:25:15.404Z,2.80
2018-04-29T08:27:42.235Z,2.70
2018-04-29T08:30:09.856Z,2.53
2018-04-29T08:32:36.500Z,3.03
2018-04-29T08:35:03.175Z,3.80
2018-04-29T08:37:29.849Z,3.33
2018-04-29T08:39:56.536Z,2.27
2018-04-29T08:42:23.250Z,2.70
2018-04-29T08:44:49.936Z,2.47
2018-04-29T08:47:19.600Z,2.40
2018-04-29T08:49:46.284Z,2.17
2018-04-29T08:52:15.026Z,3.50
2018-04-29T08:54:41.799Z,2.00
2018-04-29T08:57:08.549Z,2.63
2018-04-29T08:59:35.212Z,2.60
2018-04-29T09:02:02.089Z,2.20
2018-04-29T09:04:28.786Z,2.50
2018-04-29T09:06:55.615Z,2.20
2018-04-29T09:09:22.296Z,1.90
2018-04-29T09:11:49.110Z,2.87
2018-04-29T09:14:15.801Z,1.93
2018-04-29T09:16:42.464Z,1.77
2018-04-29T09:19:10.656Z,2.63
2018-04-29T09:21:37.365Z,2.13
2018-04-29T09:24:04.238Z,2.23
2018-04-29T09:26:30.923Z,2.50
2018-04-29T09:28:57.589Z,1.90
2018-04-29T09:31:24.272Z,1.80
2018-04-29T09:33:51.882Z,2.00
2018-04-29T09:36:19.138Z,1.90
2018-04-29T09:38:45.790Z,2.40
2018-04-29T09:41:13.626Z,2.80
2018-04-29T09:43:40.549Z,2.30
2018-04-29T09:46:07.153Z,1.90
2018-04-29T09:48:33.944Z,2.33
2018-04-29T09:51:00.621Z,2.20
2018-04-29T09:53:27.361Z,1.67
2018-04-29T09:55:54.000Z,2.40
2018-04-29T09:58:20.687Z,1.57
2018-04-29T10:00:50.273Z,2.27
2018-04-29T10:03:16.977Z,2.40
2018-04-29T10:05:43.705Z,2.40
2018-04-29T10:08:10.484Z,1.90
2018-04-29T10:10:37.257Z,3.00
2018-04-29T10:13:03.978Z,2.13
2018-04-29T10:15:30.837Z,1.97
2018-04-29T10:17:57.719Z,2.47
2018-04-29T10:20:24.461Z,2.30
2018-04-29T10:22:52.257Z,2.10
2018-04-29T10:25:20.092Z,2.57
2018-04-29T10:27:46.925Z,2.33
2018-04-29T10:30:13.658Z,2.50
2018-04-29T10:32:41.186Z,2.33
2018-04-29T10:35:08.050Z,2.20
2018-04-29T10:37:34.549Z,1.97
2018-04-29T10:40:01.230Z,1.87
2018-04-29T10:42:27.912Z,1.83
2018-04-29T10:44:54.623Z,2.90
2018-04-29T10:47:21.333Z,1.83
2018-04-29T10:49:48.032Z,2.03
2018-04-29T10:52:14.713Z,2.10
2018-04-29T10:54:42.203Z,2.17
2018-04-29T10:57:08.911Z,1.90
2018-04-29T10:59:37.512Z,2.10
2018-04-29T11:02:04.158Z,2.07
2018-04-29T11:04:30.852Z,1.90
2018-04-29T11:06:57.563Z,2.10
2018-04-29T11:09:24.211Z,1.80
2018-04-29T11:11:50.955Z,2.50
2018-04-29T11:14:17.598Z,1.57
2018-04-29T11:16:44.292Z,1.87
2018-04-29T11:19:10.952Z,1.97
2018-04-29T11:21:37.761Z,1.70
2018-04-29T11:24:04.407Z,2.17
2018-04-29T11:26:31.088Z,1.83
2018-04-29T11:28:57.748Z,2.33
2018-04-29T11:31:24.444Z,1.77
2018-04-29T11:33:51.150Z,1.80
2018-04-29T11:36:17.828Z,2.87
2018-04-29T11:38:44.555Z,2.07
2018-04-29T11:41:11.229Z,1.93
2018-04-29T11:43:37.931Z,2.23
2018-04-29T11:46:04.874Z,1.80
2018-04-29T11:48:31.615Z,2.17
2018-04-29T11:50:58.293Z,1.90
2018-04-29T11:53:25.004Z,2.47
2018-04-29T11:55:51.735Z,1.70
2018-04-29T11:58:18.372Z,1.60
2018-04-29T12:00:45.029Z,1.60
2018-04-29T12:03:11.674Z,1.90
2018-04-29T12:05:38.363Z,1.57
2018-04-29T12:08:05.038Z,1.85
2018-04-29T12:10:31.695Z,1.67
2018-04-29T12:12:58.373Z,1.77
2018-04-29T12:15:25.035Z,1.58
2018-04-29T12:17:51.725Z,2.20
2018-04-29T12:20:18.419Z,1.70
2018-04-29T12:22:45.119Z,2.57
2018-04-29T12:25:11.822Z,1.40
2018-04-29T12:27:38.484Z,1.87
2018-04-29T12:30:05.230Z,1.65
2018-04-29T12:32:31.817Z,2.37
2018-04-29T12:34:58.504Z,1.30
2018-04-29T12:37:25.398Z,1.73
2018-04-29T12:39:54.547Z,2.55
2018-04-29T12:42:21.173Z,1.40
2018-04-29T12:44:47.884Z,1.48
2018-04-29T12:47:15.174Z,1.45
2018-04-29T12:49:41.911Z,1.80
2018-04-29T12:52:09.015Z,1.40
2018-04-29T12:54:35.864Z,1.58
2018-04-29T12:57:02.642Z,1.60
2018-04-29T12:59:29.325Z,1.58
2018-04-29T13:01:55.989Z,1.30
2018-04-29T13:04:22.682Z,1.50
2018-04-29T13:06:49.358Z,1.60
2018-04-29T13:09:16.016Z,1.15
2018-04-29T13:11:42.673Z,1.40
2018-04-29T13:14:09.372Z,1.50
2018-04-29T13:16:36.016Z,1.48
2018-04-29T13:19:02.676Z,2.15
2018-04-29T13:21:29.394Z,1.60
2018-04-29T13:23:56.042Z,1.67
2018-04-29T13:26:22.722Z,1.45
2018-04-29T13:28:49.396Z,1.55
2018-04-29T13:31:16.066Z,1.15
2018-04-29T13:33:42.791Z,1.52
2018-04-29T13:36:09.475Z,1.27
2018-04-29T13:38:36.144Z,2.35
2018-04-29T13:41:02.788Z,1.58
2018-04-29T13:43:30.092Z,1.00
2018-04-29T13:45:56.745Z,2.47
2018-04-29T13:48:23.446Z,1.02
2018-04-29T13:50:50.108Z,1.30
2018-04-29T13:53:16.794Z,1.12
2018-04-29T13:55:43.465Z,1.00
2018-04-29T13:58:10.132Z,1.48
2018-04-29T14:00:36.827Z,1.15
2018-04-29T14:03:03.525Z,0.95
2018-04-29T14:05:30.210Z,1.20
2018-04-29T14:07:56.883Z,1.17
2018-04-29T14:10:23.653Z,1.05
2018-04-29T14:12:50.298Z,1.00
2018-04-29T14:15:16.940Z,1.10
2018-04-29T14:17:43.621Z,1.80
2018-04-29T14:20:10.376Z,1.48
2018-04-29T14:22:37.021Z,1.35
2018-04-29T14:25:03.686Z,1.52
2018-04-29T14:27:31.080Z,1.23
2018-04-29T14:29:57.772Z,1.08
2018-04-29T14:32:24.421Z,1.17
2018-04-29T14:34:51.091Z,1.20
2018-04-29T14:37:17.761Z,1.12
2018-04-29T14:39:44.460Z,1.12
2018-04-29T14:42:11.194Z,1.15
2018-04-29T14:44:37.853Z,1.00
2018-04-29T14:47:04.525Z,1.00
2018-04-29T14:49:31.198Z,1.10
2018-04-29T14:51:57.872Z,1.10
2018-04-29T14:54:24.533Z,1.10
2018-04-29T14:56:51.176Z,0.90
2018-04-29T14:59:18.445Z,1.10
2018-04-29T15:01:45.090Z,1.92
2018-04-29T15:04:11.757Z,1.45
2018-04-29T15:06:38.405Z,1.42
2018-04-29T15:09:05.097Z,1.05
2018-04-29T15:11:31.903Z,1.17
2018-04-29T15:13:58.603Z,1.17
2018-04-29T15:16:25.302Z,1.25
2018-04-29T15:19:00.736Z,1.02
2018-04-29T15:21:27.402Z,1.08
2018-04-29T15:23:54.078Z,1.10
2018-04-29T15:26:20.762Z,1.30
2018-04-29T15:28:47.400Z,1.40
2018-04-29T15:31:14.101Z,1.20
2018-04-29T15:33:41.616Z,1.37
2018-04-29T15:36:08.280Z,1.20
2018-04-29T15:38:34.952Z,1.33
2018-04-29T15:41:01.618Z,1.10
2018-04-29T15:43:28.377Z,1.52
2018-04-29T15:45:55.040Z,1.05
2018-04-29T15:48:22.238Z,1.40
2018-04-29T15:50:48.944Z,1.40
2018-04-29T15:53:25.208Z,1.35
2018-04-29T15:55:51.877Z,1.00
2018-04-29T15:58:22.212Z,1.23
2018-04-29T16:00:48.872Z,1.35
2018-04-29T16:03:15.528Z,1.52
2018-04-29T16:05:42.277Z,1.23
2018-04-29T16:08:08.982Z,1.20
2018-04-29T16:10:36.402Z,1.60
2018-04-29T16:13:03.073Z,1.10
2018-04-29T16:15:29.725Z,1.40
2018-04-29T16:17:56.373Z,1.45
2018-04-29T16:20:23.067Z,2.03
2018-04-29T16:22:49.737Z,1.52
2018-04-29T16:25:16.445Z,1.12
2018-04-29T16:27:43.080Z,1.10
2018-04-29T16:30:09.757Z,1.08
2018-04-29T16:32:36.466Z,1.48
2018-04-29T16:35:03.150Z,1.33
2018-04-29T16:37:29.850Z,1.23
2018-04-29T16:39:56.505Z,1.20
2018-04-29T16:42:23.668Z,1.00
2018-04-29T16:44:50.331Z,2.28
2018-04-29T16:47:17.134Z,1.40
2018-04-29T16:49:43.811Z,1.10
2018-04-29T16:52:10.467Z,0.90
2018-04-29T16:54:37.132Z,1.00
2018-04-29T16:57:03.807Z,1.27
2018-04-29T16:59:30.496Z,1.10
2018-04-29T17:01:57.156Z,1.20
2018-04-29T17:04:23.840Z,1.10
2018-04-29T17:06:50.484Z,1.10
2018-04-29T17:09:17.177Z,0.90
2018-04-29T17:11:43.868Z,1.20
2018-04-29T17:14:10.520Z,1.40
2018-04-29T17:16:37.200Z,1.33
2018-04-29T17:19:04.000Z,1.33
2018-04-29T17:21:30.695Z,1.58
2018-04-29T17:23:57.351Z,0.90
2018-04-29T17:26:24.013Z,1.30
2018-04-29T17:28:50.778Z,1.10
2018-04-29T17:31:17.426Z,1.20
2018-04-29T17:33:44.094Z,1.40
2018-04-29T17:36:10.887Z,1.73
2018-04-29T17:38:37.560Z,1.35
2018-04-29T17:41:04.204Z,1.25
2018-04-29T17:43:30.886Z,1.00
2018-04-29T17:45:57.564Z,1.42
2018-04-29T17:48:24.242Z,1.40
2018-04-29T17:50:50.900Z,1.20
2018-04-29T17:53:17.543Z,1.50
2018-04-29T17:55:44.237Z,1.55
2018-04-29T17:58:10.904Z,1.20
2018-04-29T18:00:37.576Z,1.60
2018-04-29T18:03:04.232Z,1.23
2018-04-29T18:05:30.870Z,1.40
2018-04-29T18:07:57.556Z,1.30
2018-04-29T18:10:24.198Z,1.42
2018-04-29T18:12:50.920Z,1.23
2018-04-29T18:15:17.576Z,1.12
2018-04-29T18:17:44.266Z,1.60
2018-04-29T18:20:10.956Z,1.20
2018-04-29T18:22:37.735Z,1.33
2018-04-29T18:25:04.408Z,1.00
2018-04-29T18:27:31.066Z,1.25
2018-04-29T18:29:57.744Z,1.30
2018-04-29T18:32:24.409Z,1.33
2018-04-29T18:34:51.142Z,1.40
2018-04-29T18:37:17.781Z,1.98
2018-04-29T18:39:44.441Z,1.35
2018-04-29T18:42:11.161Z,2.83
2018-04-29T18:44:37.892Z,3.12
2018-04-29T18:47:04.584Z,3.20
2018-04-29T18:49:31.247Z,2.85
2018-04-29T18:51:57.925Z,3.50
2018-04-29T18:54:24.641Z,3.87
2018-04-29T18:56:51.311Z,3.83
2018-04-29T18:59:17.968Z,3.62
2018-04-29T19:01:44.627Z,3.55
2018-04-29T19:04:11.284Z,4.40
2018-04-29T19:06:37.951Z,3.90
2018-04-29T19:09:05.465Z,3.70
2018-04-29T19:11:32.100Z,4.03
2018-04-29T19:13:59.196Z,4.10
2018-04-29T19:16:25.841Z,5.00
2018-04-29T19:18:52.485Z,4.62
2018-04-29T19:21:19.164Z,4.50
2018-04-29T19:23:45.994Z,4.40
2018-04-29T19:26:12.675Z,4.20
2018-04-29T19:28:39.442Z,4.35
2018-04-29T19:31:06.225Z,4.00
2018-04-29T19:33:32.895Z,6.25
2018-04-29T19:35:59.567Z,4.60
2018-04-29T19:38:26.260Z,4.90
2018-04-29T19:40:52.892Z,4.25
2018-04-29T19:43:19.565Z,4.95
2018-04-29T19:45:46.208Z,4.43
2018-04-29T19:48:13.047Z,5.50
2018-04-29T19:50:39.739Z,5.07
2018-04-29T19:53:06.397Z,4.05
2018-04-29T19:55:33.098Z,4.43
2018-04-29T19:57:59.792Z,4.72
2018-04-29T20:00:26.474Z,4.37
2018-04-29T20:02:53.172Z,5.57
2018-04-29T20:05:19.838Z,5.97
2018-04-29T20:07:47.604Z,4.80
2018-04-29T20:10:14.282Z,3.90
2018-04-29T20:12:40.970Z,4.53
2018-04-29T20:15:07.682Z,5.37
2018-04-29T20:17:34.357Z,5.20
2018-04-29T20:20:01.041Z,5.53
2018-04-29T20:22:27.720Z,4.68
2018-04-29T20:24:54.400Z,4.63
2018-04-29T20:27:21.060Z,4.97
2018-04-29T20:29:47.779Z,4.27
2018-04-29T20:32:20.411Z,4.57
2018-04-29T20:34:47.094Z,4.00
2018-04-29T20:37:13.793Z,4.50
2018-04-29T20:39:40.433Z,4.73
2018-04-29T20:42:07.106Z,4.20
2018-04-29T20:44:33.792Z,3.70
2018-04-29T20:47:00.480Z,4.13
2018-04-29T20:49:27.126Z,4.50
2018-04-29T20:51:53.781Z,3.37
2018-04-29T20:54:20.484Z,4.47
2018-04-29T20:56:47.155Z,3.53
2018-04-29T20:59:13.839Z,3.60
2018-04-29T21:01:40.533Z,3.37
2018-04-29T21:04:07.196Z,3.83
2018-04-29T21:06:33.989Z,3.27
2018-04-29T21:09:00.682Z,2.43
2018-04-29T21:11:27.360Z,3.30
2018-04-29T21:13:54.076Z,2.93
2018-04-29T21:16:20.817Z,3.10
2018-04-29T21:18:47.487Z,2.60
2018-04-29T21:21:14.684Z,2.10
2018-04-29T21:23:41.338Z,2.20
2018-04-29T21:26:07.984Z,2.57
2018-04-29T21:28:34.681Z,1.90
2018-04-29T21:31:01.426Z,2.40
2018-04-29T21:33:28.134Z,2.13
2018-04-29T21:35:54.784Z,2.37
2018-04-29T21:38:21.465Z,2.10
2018-04-29T21:40:48.240Z,2.53
2018-04-29T21:43:14.913Z,2.47
2018-04-29T21:45:41.608Z,2.10
2018-04-29T21:48:08.309Z,1.80
2018-04-29T21:50:35.014Z,1.70
2018-04-29T21:53:01.660Z,1.87
2018-04-29T21:55:28.436Z,1.93
2018-04-29T21:57:55.095Z,2.53
2018-04-29T22:00:21.771Z,1.70
2018-04-29T22:02:48.489Z,1.90
2018-04-29T22:05:16.029Z,1.47
2018-04-29T22:07:42.682Z,1.70
2018-04-29T22:10:09.511Z,1.90
2018-04-29T22:12:36.164Z,1.60
2018-04-29T22:15:02.925Z,1.83
2018-04-29T22:17:29.592Z,2.00
2018-04-29T22:19:56.378Z,1.80
2018-04-29T22:22:23.085Z,1.77
2018-04-29T22:24:51.221Z,1.93
2018-04-29T22:27:19.393Z,1.87
2018-04-29T22:32:29.509Z,2.00
2018-04-29T22:34:57.228Z,1.73
2018-04-29T22:37:24.707Z,1.80
2018-04-29T22:39:53.470Z,1.90
2018-04-29T22:42:22.995Z,1.63
2018-04-29T22:44:49.806Z,1.80
2018-04-29T22:47:17.946Z,1.77
2018-04-29T22:49:46.565Z,2.83
2018-04-29T22:52:13.649Z,2.60
2018-04-29T22:54:42.886Z,2.10
2018-04-29T22:57:10.525Z,1.97
2018-04-29T22:59:40.300Z,1.67
2018-04-29T23:02:07.824Z,2.07
2018-04-29T23:04:36.726Z,2.30
2018-04-29T23:07:04.386Z,2.20
2018-04-29T23:09:32.090Z,2.60
2018-04-29T23:12:01.566Z,2.07
2018-04-29T23:14:28.929Z,2.13
2018-04-29T23:16:55.696Z,2.70
2018-04-29T23:19:23.009Z,2.07
2018-04-29T23:21:49.775Z,1.87
2018-04-29T23:24:16.542Z,2.50
2018-04-29T23:26:43.192Z,2.83
2018-04-29T23:29:09.876Z,1.67
2018-04-29T23:31:36.518Z,2.07
2018-04-29T23:34:03.220Z,1.77
2018-04-29T23:36:29.865Z,2.10
2018-04-29T23:38:56.533Z,2.43
2018-04-29T23:41:23.241Z,1.97
2018-04-29T23:43:49.884Z,1.93
2018-04-29T23:46:16.589Z,2.00
2018-04-29T23:48:43.401Z,2.13
2018-04-29T23:51:10.082Z,2.17
2018-04-29T23:53:36.766Z,2.00
2018-04-29T23:56:03.431Z,2.03
2018-04-29T23:58:30.224Z,2.80
